Kenora Airport
CYQK : now visible

Airfield :











YOU CAN JOIN US ON...

 
LOGIN :

Register | Disclaimer

   EN    FR    IT 

 









Legend :    VFR   Marginal VFR   IFR   Intensive IFR   Very Intensive IFR
Visi :
Ceiling :
>= 8 km
>= 3000ft
5 to 8 km
1000 to 3000 ft
1500m to 5 km
500 to 1000 ft
800 to 1500m
200 to 500 ft
< 800m
< 200 ft
Symbols :   Thunderstorms  Fog  Heavy snow  Heavy precipitations  Wind > 20 kt






- Airport Elevation : 1332 ft
- IATA code : YQK


CYQK - Kenora

CURRENT METAR :
  • 311000Z 30004KT 20SM FEW080 09/00 A3022 RMK AC1 AC TR SLP241

EXPIRED METARs :
  • 310900Z 33005KT 20SM FEW080 09/02 A3020 RMK AC1 SLP238
  • 310800Z 23010KT 20SM FEW080 11/02 A3018 RMK AC2 SLP230

TAF TAF CYQK
Valid from the 31 at 08:00 until the 31 at 20:00 UTC


310730Z 3108/3120 24012KT P6SM FEW080
BECMG 3108/3110 24008KT RMK NXT FCST BY 311400Z
CZWG FIR / North America



MET'MAP, your aeronautical weather chart ! - Copyright ORBIFLY December 2007 - Disclaimer

ORBIFLY MET'MAP TEAM :

Programming & Development : Alexandra Zaïnal
Concept & original design : Baudouin d'Aumeries
Assistance for programming : Marc-Olivier Méhu
Technical & hardware support : Manuel Goepfert

Contact : metmap@orbifly.com




SOURCES & CREDITS :

   NOAA       Earth
Advisory